sensor_id;sensor_type;location;lat;lon;timestamp;P1;durP1;ratioP1;P2;durP2;ratioP2
72209;SDS011;60113;48.762;12.302;2023-04-24T00:00:03;7.50;;;3.20;;
72209;SDS011;60113;48.762;12.302;2023-04-24T00:02:37;6.70;;;3.08;;
72209;SDS011;60113;48.762;12.302;2023-04-24T00:05:06;6.07;;;2.97;;
72209;SDS011;60113;48.762;12.302;2023-04-24T00:07:33;4.95;;;2.67;;
72209;SDS011;60113;48.762;12.302;2023-04-24T00:09:59;7.03;;;2.85;;
72209;SDS011;60113;48.762;12.302;2023-04-24T00:12:25;6.18;;;2.78;;
72209;SDS011;60113;48.762;12.302;2023-04-24T00:14:51;5.35;;;2.75;;
72209;SDS011;60113;48.762;12.302;2023-04-24T00:17:16;5.70;;;2.83;;
72209;SDS011;60113;48.762;12.302;2023-04-24T00:19:48;4.68;;;3.10;;
72209;SDS011;60113;48.762;12.302;2023-04-24T00:22:16;9.15;;;4.20;;
72209;SDS011;60113;48.762;12.302;2023-04-24T00:24:42;5.18;;;3.42;;
72209;SDS011;60113;48.762;12.302;2023-04-24T00:27:08;4.95;;;2.70;;
72209;SDS011;60113;48.762;12.302;2023-04-24T00:29:34;8.00;;;2.53;;
72209;SDS011;60113;48.762;12.302;2023-04-24T00:31:59;5.65;;;3.30;;
72209;SDS011;60113;48.762;12.302;2023-04-24T00:34:25;4.25;;;2.55;;
72209;SDS011;60113;48.762;12.302;2023-04-24T00:36:50;4.82;;;2.90;;
72209;SDS011;60113;48.762;12.302;2023-04-24T00:39:20;6.03;;;3.90;;
72209;SDS011;60113;48.762;12.302;2023-04-24T00:41:46;9.07;;;3.72;;
72209;SDS011;60113;48.762;12.302;2023-04-24T00:44:13;3.88;;;2.92;;
72209;SDS011;60113;48.762;12.302;2023-04-24T00:46:40;5.38;;;3.58;;
72209;SDS011;60113;48.762;12.302;2023-04-24T00:49:06;5.47;;;3.53;;
72209;SDS011;60113;48.762;12.302;2023-04-24T00:51:31;9.05;;;4.88;;
72209;SDS011;60113;48.762;12.302;2023-04-24T00:53:58;8.10;;;4.30;;
72209;SDS011;60113;48.762;12.302;2023-04-24T00:56:24;9.38;;;4.65;;
72209;SDS011;60113;48.762;12.302;2023-04-24T00:58:50;6.88;;;3.35;;
72209;SDS011;60113;48.762;12.302;2023-04-24T01:01:16;6.80;;;2.75;;
72209;SDS011;60113;48.762;12.302;2023-04-24T01:03:43;6.03;;;2.70;;
72209;SDS011;60113;48.762;12.302;2023-04-24T01:06:09;4.75;;;2.17;;
72209;SDS011;60113;48.762;12.302;2023-04-24T01:08:35;4.85;;;2.70;;
72209;SDS011;60113;48.762;12.302;2023-04-24T01:11:01;6.32;;;3.17;;
72209;SDS011;60113;48.762;12.302;2023-04-24T01:13:28;5.95;;;3.22;;
72209;SDS011;60113;48.762;12.302;2023-04-24T01:15:54;5.95;;;3.00;;
72209;SDS011;60113;48.762;12.302;2023-04-24T01:18:20;5.38;;;2.95;;
72209;SDS011;60113;48.762;12.302;2023-04-24T01:20:46;8.15;;;2.88;;
72209;SDS011;60113;48.762;12.302;2023-04-24T01:23:16;7.10;;;3.75;;
72209;SDS011;60113;48.762;12.302;2023-04-24T01:25:42;10.20;;;4.30;;
72209;SDS011;60113;48.762;12.302;2023-04-24T01:28:07;6.55;;;3.60;;
72209;SDS011;60113;48.762;12.302;2023-04-24T01:30:33;6.93;;;3.90;;
72209;SDS011;60113;48.762;12.302;2023-04-24T01:32:59;8.68;;;4.78;;
72209;SDS011;60113;48.762;12.302;2023-04-24T01:35:25;8.48;;;4.57;;
72209;SDS011;60113;48.762;12.302;2023-04-24T01:37:51;5.38;;;3.65;;
72209;SDS011;60113;48.762;12.302;2023-04-24T01:40:18;8.63;;;4.35;;
72209;SDS011;60113;48.762;12.302;2023-04-24T01:42:43;7.00;;;4.00;;
72209;SDS011;60113;48.762;12.302;2023-04-24T01:45:10;6.07;;;4.20;;
72209;SDS011;60113;48.762;12.302;2023-04-24T01:47:38;10.43;;;4.60;;
72209;SDS011;60113;48.762;12.302;2023-04-24T01:50:04;7.22;;;4.40;;
72209;SDS011;60113;48.762;12.302;2023-04-24T01:52:31;6.32;;;4.38;;
72209;SDS011;60113;48.762;12.302;2023-04-24T01:55:02;7.57;;;4.15;;
72209;SDS011;60113;48.762;12.302;2023-04-24T01:57:29;5.10;;;3.50;;
72209;SDS011;60113;48.762;12.302;2023-04-24T01:59:58;6.78;;;3.75;;
72209;SDS011;60113;48.762;12.302;2023-04-24T02:02:23;6.45;;;3.67;;
72209;SDS011;60113;48.762;12.302;2023-04-24T02:04:49;6.57;;;4.20;;
72209;SDS011;60113;48.762;12.302;2023-04-24T02:07:15;11.27;;;4.32;;
72209;SDS011;60113;48.762;12.302;2023-04-24T02:09:41;8.60;;;4.35;;
72209;SDS011;60113;48.762;12.302;2023-04-24T02:12:06;7.20;;;4.32;;
72209;SDS011;60113;48.762;12.302;2023-04-24T02:14:32;7.10;;;4.82;;
72209;SDS011;60113;48.762;12.302;2023-04-24T02:16:57;9.05;;;5.10;;
72209;SDS011;60113;48.762;12.302;2023-04-24T02:19:23;10.57;;;5.35;;
72209;SDS011;60113;48.762;12.302;2023-04-24T02:21:48;7.18;;;4.63;;
72209;SDS011;60113;48.762;12.302;2023-04-24T02:24:14;7.43;;;4.57;;
72209;SDS011;60113;48.762;12.302;2023-04-24T02:26:43;8.65;;;4.65;;
72209;SDS011;60113;48.762;12.302;2023-04-24T02:29:09;8.15;;;4.80;;
72209;SDS011;60113;48.762;12.302;2023-04-24T02:31:34;7.50;;;5.03;;
72209;SDS011;60113;48.762;12.302;2023-04-24T02:34:01;9.00;;;5.20;;
72209;SDS011;60113;48.762;12.302;2023-04-24T02:36:26;10.30;;;4.95;;
72209;SDS011;60113;48.762;12.302;2023-04-24T02:38:52;7.78;;;4.70;;
72209;SDS011;60113;48.762;12.302;2023-04-24T02:41:17;12.40;;;6.00;;
72209;SDS011;60113;48.762;12.302;2023-04-24T02:43:43;11.88;;;5.40;;
72209;SDS011;60113;48.762;12.302;2023-04-24T02:46:09;7.78;;;4.50;;
72209;SDS011;60113;48.762;12.302;2023-04-24T02:48:34;6.10;;;4.80;;
72209;SDS011;60113;48.762;12.302;2023-04-24T02:51:00;7.25;;;4.63;;
72209;SDS011;60113;48.762;12.302;2023-04-24T02:53:25;7.97;;;4.45;;
72209;SDS011;60113;48.762;12.302;2023-04-24T02:55:51;9.45;;;4.35;;
72209;SDS011;60113;48.762;12.302;2023-04-24T02:58:17;10.38;;;4.82;;
72209;SDS011;60113;48.762;12.302;2023-04-24T03:00:44;7.43;;;4.53;;
72209;SDS011;60113;48.762;12.302;2023-04-24T03:03:10;10.27;;;4.30;;
72209;SDS011;60113;48.762;12.302;2023-04-24T03:05:36;5.82;;;4.38;;
72209;SDS011;60113;48.762;12.302;2023-04-24T03:08:01;6.75;;;3.47;;
72209;SDS011;60113;48.762;12.302;2023-04-24T03:10:27;8.63;;;3.58;;
72209;SDS011;60113;48.762;12.302;2023-04-24T03:12:52;5.60;;;3.78;;
72209;SDS011;60113;48.762;12.302;2023-04-24T03:15:21;7.88;;;3.63;;
72209;SDS011;60113;48.762;12.302;2023-04-24T03:17:47;4.50;;;3.30;;
72209;SDS011;60113;48.762;12.302;2023-04-24T03:20:14;4.65;;;3.28;;
72209;SDS011;60113;48.762;12.302;2023-04-24T03:22:39;6.25;;;3.70;;
72209;SDS011;60113;48.762;12.302;2023-04-24T03:25:05;6.13;;;2.65;;
72209;SDS011;60113;48.762;12.302;2023-04-24T03:27:31;7.18;;;2.05;;
72209;SDS011;60113;48.762;12.302;2023-04-24T03:29:56;3.63;;;1.98;;
72209;SDS011;60113;48.762;12.302;2023-04-24T03:32:22;3.75;;;1.45;;
72209;SDS011;60113;48.762;12.302;2023-04-24T03:34:48;1.65;;;1.15;;
72209;SDS011;60113;48.762;12.302;2023-04-24T03:37:15;1.58;;;1.02;;
72209;SDS011;60113;48.762;12.302;2023-04-24T03:39:42;2.45;;;1.42;;
72209;SDS011;60113;48.762;12.302;2023-04-24T03:42:07;1.63;;;1.27;;
72209;SDS011;60113;48.762;12.302;2023-04-24T03:44:33;2.65;;;1.30;;
72209;SDS011;60113;48.762;12.302;2023-04-24T03:47:00;2.65;;;1.50;;
72209;SDS011;60113;48.762;12.302;2023-04-24T03:49:25;3.33;;;1.52;;
72209;SDS011;60113;48.762;12.302;2023-04-24T03:51:51;1.45;;;0.98;;
72209;SDS011;60113;48.762;12.302;2023-04-24T03:54:19;1.92;;;0.80;;
72209;SDS011;60113;48.762;12.302;2023-04-24T03:56:45;1.70;;;1.00;;
72209;SDS011;60113;48.762;12.302;2023-04-24T03:59:11;0.55;;;0.40;;
72209;SDS011;60113;48.762;12.302;2023-04-24T04:01:36;0.90;;;0.60;;
72209;SDS011;60113;48.762;12.302;2023-04-24T04:04:02;1.20;;;0.80;;
72209;SDS011;60113;48.762;12.302;2023-04-24T04:06:28;1.58;;;0.90;;
72209;SDS011;60113;48.762;12.302;2023-04-24T04:08:56;1.30;;;0.90;;
72209;SDS011;60113;48.762;12.302;2023-04-24T04:11:22;0.63;;;0.52;;
72209;SDS011;60113;48.762;12.302;2023-04-24T04:13:48;0.68;;;0.60;;
72209;SDS011;60113;48.762;12.302;2023-04-24T04:16:13;0.55;;;0.55;;
72209;SDS011;60113;48.762;12.302;2023-04-24T04:18:42;1.38;;;0.77;;
72209;SDS011;60113;48.762;12.302;2023-04-24T04:21:07;1.30;;;0.88;;
72209;SDS011;60113;48.762;12.302;2023-04-24T04:23:33;1.25;;;0.75;;
72209;SDS011;60113;48.762;12.302;2023-04-24T04:25:58;1.00;;;0.68;;
72209;SDS011;60113;48.762;12.302;2023-04-24T04:28:24;1.35;;;0.50;;
72209;SDS011;60113;48.762;12.302;2023-04-24T04:30:50;2.30;;;0.73;;
72209;SDS011;60113;48.762;12.302;2023-04-24T04:33:19;0.88;;;0.70;;
72209;SDS011;60113;48.762;12.302;2023-04-24T04:35:45;1.52;;;0.75;;
72209;SDS011;60113;48.762;12.302;2023-04-24T04:38:14;0.88;;;0.63;;
72209;SDS011;60113;48.762;12.302;2023-04-24T04:40:40;0.60;;;0.60;;
72209;SDS011;60113;48.762;12.302;2023-04-24T04:43:05;0.50;;;0.50;;
72209;SDS011;60113;48.762;12.302;2023-04-24T04:45:31;0.70;;;0.50;;
72209;SDS011;60113;48.762;12.302;2023-04-24T04:47:58;1.25;;;0.50;;
72209;SDS011;60113;48.762;12.302;2023-04-24T04:50:26;0.57;;;0.57;;
72209;SDS011;60113;48.762;12.302;2023-04-24T04:52:51;1.63;;;0.70;;
72209;SDS011;60113;48.762;12.302;2023-04-24T04:55:17;0.88;;;0.60;;
72209;SDS011;60113;48.762;12.302;2023-04-24T04:57:45;1.20;;;0.55;;
72209;SDS011;60113;48.762;12.302;2023-04-24T05:00:11;1.05;;;0.60;;
72209;SDS011;60113;48.762;12.302;2023-04-24T05:02:37;2.25;;;0.82;;
72209;SDS011;60113;48.762;12.302;2023-04-24T05:05:04;0.52;;;0.50;;
72209;SDS011;60113;48.762;12.302;2023-04-24T05:07:30;1.88;;;1.05;;
72209;SDS011;60113;48.762;12.302;2023-04-24T05:09:56;0.95;;;0.52;;
72209;SDS011;60113;48.762;12.302;2023-04-24T05:12:21;0.77;;;0.60;;
72209;SDS011;60113;48.762;12.302;2023-04-24T05:14:47;1.00;;;0.73;;
72209;SDS011;60113;48.762;12.302;2023-04-24T05:17:12;0.68;;;0.60;;
72209;SDS011;60113;48.762;12.302;2023-04-24T05:19:37;0.93;;;0.50;;
72209;SDS011;60113;48.762;12.302;2023-04-24T05:22:03;0.73;;;0.43;;
72209;SDS011;60113;48.762;12.302;2023-04-24T05:24:32;2.08;;;0.88;;
72209;SDS011;60113;48.762;12.302;2023-04-24T05:26:58;3.28;;;0.60;;
72209;SDS011;60113;48.762;12.302;2023-04-24T05:29:24;1.65;;;0.50;;
72209;SDS011;60113;48.762;12.302;2023-04-24T05:31:51;0.73;;;0.50;;
72209;SDS011;60113;48.762;12.302;2023-04-24T05:34:17;0.68;;;0.45;;
72209;SDS011;60113;48.762;12.302;2023-04-24T05:36:43;0.88;;;0.50;;
72209;SDS011;60113;48.762;12.302;2023-04-24T05:39:08;2.78;;;0.60;;
72209;SDS011;60113;48.762;12.302;2023-04-24T05:41:34;1.02;;;0.60;;
72209;SDS011;60113;48.762;12.302;2023-04-24T05:44:00;1.20;;;0.60;;
72209;SDS011;60113;48.762;12.302;2023-04-24T05:46:25;0.40;;;0.40;;
72209;SDS011;60113;48.762;12.302;2023-04-24T05:48:51;0.60;;;0.50;;
72209;SDS011;60113;48.762;12.302;2023-04-24T05:51:21;3.83;;;0.60;;
72209;SDS011;60113;48.762;12.302;2023-04-24T05:54:10;0.55;;;0.47;;
72209;SDS011;60113;48.762;12.302;2023-04-24T05:57:14;1.33;;;0.70;;
72209;SDS011;60113;48.762;12.302;2023-04-24T05:59:47;0.47;;;0.30;;
72209;SDS011;60113;48.762;12.302;2023-04-24T06:02:18;0.70;;;0.52;;
72209;SDS011;60113;48.762;12.302;2023-04-24T06:04:49;0.55;;;0.55;;
72209;SDS011;60113;48.762;12.302;2023-04-24T06:07:19;0.50;;;0.43;;
72209;SDS011;60113;48.762;12.302;2023-04-24T06:09:48;0.40;;;0.40;;
72209;SDS011;60113;48.762;12.302;2023-04-24T06:12:13;0.93;;;0.60;;
72209;SDS011;60113;48.762;12.302;2023-04-24T06:14:38;0.98;;;0.50;;
72209;SDS011;60113;48.762;12.302;2023-04-24T06:17:05;0.40;;;0.30;;
72209;SDS011;60113;48.762;12.302;2023-04-24T06:19:30;0.57;;;0.50;;
72209;SDS011;60113;48.762;12.302;2023-04-24T06:21:56;0.75;;;0.43;;
72209;SDS011;60113;48.762;12.302;2023-04-24T06:24:21;0.93;;;0.57;;
72209;SDS011;60113;48.762;12.302;2023-04-24T06:26:47;0.80;;;0.50;;
72209;SDS011;60113;48.762;12.302;2023-04-24T06:29:12;0.70;;;0.55;;
72209;SDS011;60113;48.762;12.302;2023-04-24T06:31:38;0.68;;;0.40;;
72209;SDS011;60113;48.762;12.302;2023-04-24T06:34:03;1.52;;;0.60;;
72209;SDS011;60113;48.762;12.302;2023-04-24T06:36:29;0.47;;;0.40;;
72209;SDS011;60113;48.762;12.302;2023-04-24T06:38:56;0.55;;;0.40;;
72209;SDS011;60113;48.762;12.302;2023-04-24T06:41:22;0.68;;;0.55;;
72209;SDS011;60113;48.762;12.302;2023-04-24T06:43:47;0.65;;;0.45;;
72209;SDS011;60113;48.762;12.302;2023-04-24T06:46:13;1.08;;;0.80;;
72209;SDS011;60113;48.762;12.302;2023-04-24T06:48:39;0.70;;;0.60;;
72209;SDS011;60113;48.762;12.302;2023-04-24T06:51:04;0.30;;;0.30;;
72209;SDS011;60113;48.762;12.302;2023-04-24T06:53:30;0.40;;;0.40;;
72209;SDS011;60113;48.762;12.302;2023-04-24T06:55:55;0.30;;;0.30;;
72209;SDS011;60113;48.762;12.302;2023-04-24T06:58:21;0.30;;;0.30;;
72209;SDS011;60113;48.762;12.302;2023-04-24T07:00:46;0.30;;;0.28;;
72209;SDS011;60113;48.762;12.302;2023-04-24T07:03:12;0.32;;;0.30;;
72209;SDS011;60113;48.762;12.302;2023-04-24T07:05:37;0.52;;;0.30;;
72209;SDS011;60113;48.762;12.302;2023-04-24T07:08:03;0.65;;;0.55;;
72209;SDS011;60113;48.762;12.302;2023-04-24T07:10:29;0.35;;;0.30;;
72209;SDS011;60113;48.762;12.302;2023-04-24T07:12:55;0.57;;;0.30;;
72209;SDS011;60113;48.762;12.302;2023-04-24T07:15:22;0.60;;;0.40;;
72209;SDS011;60113;48.762;12.302;2023-04-24T07:17:48;0.75;;;0.43;;
72209;SDS011;60113;48.762;12.302;2023-04-24T07:20:14;0.90;;;0.60;;
72209;SDS011;60113;48.762;12.302;2023-04-24T07:22:40;0.20;;;0.20;;
72209;SDS011;60113;48.762;12.302;2023-04-24T07:25:06;0.50;;;0.40;;
72209;SDS011;60113;48.762;12.302;2023-04-24T07:27:33;0.30;;;0.30;;
72209;SDS011;60113;48.762;12.302;2023-04-24T07:29:59;0.30;;;0.30;;
72209;SDS011;60113;48.762;12.302;2023-04-24T07:32:25;2.00;;;0.55;;
72209;SDS011;60113;48.762;12.302;2023-04-24T07:34:50;0.30;;;0.30;;
72209;SDS011;60113;48.762;12.302;2023-04-24T07:37:15;0.63;;;0.47;;
72209;SDS011;60113;48.762;12.302;2023-04-24T07:39:41;0.63;;;0.30;;
72209;SDS011;60113;48.762;12.302;2023-04-24T07:42:07;0.35;;;0.30;;
72209;SDS011;60113;48.762;12.302;2023-04-24T07:44:33;0.50;;;0.38;;
72209;SDS011;60113;48.762;12.302;2023-04-24T07:46:58;0.90;;;0.55;;
72209;SDS011;60113;48.762;12.302;2023-04-24T07:49:24;0.20;;;0.20;;
72209;SDS011;60113;48.762;12.302;2023-04-24T07:51:50;0.50;;;0.40;;
72209;SDS011;60113;48.762;12.302;2023-04-24T07:54:15;0.35;;;0.30;;
72209;SDS011;60113;48.762;12.302;2023-04-24T07:56:41;0.43;;;0.40;;
72209;SDS011;60113;48.762;12.302;2023-04-24T07:59:08;0.30;;;0.30;;
72209;SDS011;60113;48.762;12.302;2023-04-24T08:01:35;0.60;;;0.30;;
72209;SDS011;60113;48.762;12.302;2023-04-24T08:04:00;0.40;;;0.20;;
72209;SDS011;60113;48.762;12.302;2023-04-24T08:06:26;0.82;;;0.40;;
72209;SDS011;60113;48.762;12.302;2023-04-24T08:08:58;0.63;;;0.30;;
72209;SDS011;60113;48.762;12.302;2023-04-24T08:11:24;0.40;;;0.40;;
72209;SDS011;60113;48.762;12.302;2023-04-24T08:13:51;0.50;;;0.40;;
72209;SDS011;60113;48.762;12.302;2023-04-24T08:16:16;0.43;;;0.30;;
72209;SDS011;60113;48.762;12.302;2023-04-24T08:18:42;0.28;;;0.20;;
72209;SDS011;60113;48.762;12.302;2023-04-24T08:21:07;0.73;;;0.30;;
72209;SDS011;60113;48.762;12.302;2023-04-24T08:23:33;1.08;;;0.30;;
72209;SDS011;60113;48.762;12.302;2023-04-24T08:25:58;0.10;;;0.10;;
72209;SDS011;60113;48.762;12.302;2023-04-24T08:28:25;0.30;;;0.30;;
72209;SDS011;60113;48.762;12.302;2023-04-24T08:30:50;0.17;;;0.17;;
72209;SDS011;60113;48.762;12.302;2023-04-24T08:33:19;0.57;;;0.30;;
72209;SDS011;60113;48.762;12.302;2023-04-24T08:35:48;2.58;;;0.90;;
72209;SDS011;60113;48.762;12.302;2023-04-24T08:38:15;0.65;;;0.30;;
72209;SDS011;60113;48.762;12.302;2023-04-24T08:40:40;0.50;;;0.28;;
72209;SDS011;60113;48.762;12.302;2023-04-24T08:43:06;0.70;;;0.30;;
72209;SDS011;60113;48.762;12.302;2023-04-24T08:45:32;0.32;;;0.28;;
72209;SDS011;60113;48.762;12.302;2023-04-24T08:47:58;0.30;;;0.20;;
72209;SDS011;60113;48.762;12.302;2023-04-24T08:50:25;0.30;;;0.28;;
72209;SDS011;60113;48.762;12.302;2023-04-24T08:52:51;0.30;;;0.30;;
72209;SDS011;60113;48.762;12.302;2023-04-24T08:55:20;0.45;;;0.30;;
72209;SDS011;60113;48.762;12.302;2023-04-24T08:57:49;0.30;;;0.20;;
72209;SDS011;60113;48.762;12.302;2023-04-24T09:00:18;0.55;;;0.30;;
72209;SDS011;60113;48.762;12.302;2023-04-24T09:02:45;0.50;;;0.30;;
72209;SDS011;60113;48.762;12.302;2023-04-24T09:05:13;0.20;;;0.20;;
72209;SDS011;60113;48.762;12.302;2023-04-24T09:07:41;0.80;;;0.30;;
72209;SDS011;60113;48.762;12.302;2023-04-24T09:10:18;0.28;;;0.20;;
72209;SDS011;60113;48.762;12.302;2023-04-24T09:12:45;0.63;;;0.20;;
72209;SDS011;60113;48.762;12.302;2023-04-24T09:15:11;0.52;;;0.40;;
72209;SDS011;60113;48.762;12.302;2023-04-24T09:17:37;0.30;;;0.30;;
72209;SDS011;60113;48.762;12.302;2023-04-24T09:20:03;0.40;;;0.30;;
72209;SDS011;60113;48.762;12.302;2023-04-24T09:22:29;0.17;;;0.17;;
72209;SDS011;60113;48.762;12.302;2023-04-24T09:25:02;0.73;;;0.70;;
72209;SDS011;60113;48.762;12.302;2023-04-24T09:27:30;1.08;;;0.60;;
72209;SDS011;60113;48.762;12.302;2023-04-24T09:29:57;0.70;;;0.55;;
72209;SDS011;60113;48.762;12.302;2023-04-24T09:32:22;0.68;;;0.50;;
72209;SDS011;60113;48.762;12.302;2023-04-24T09:35:04;4.80;;;0.60;;
72209;SDS011;60113;48.762;12.302;2023-04-24T09:37:34;8.48;;;0.70;;
72209;SDS011;60113;48.762;12.302;2023-04-24T09:40:34;1.33;;;0.57;;
72209;SDS011;60113;48.762;12.302;2023-04-24T09:42:54;0.65;;;0.32;;
72209;SDS011;60113;48.762;12.302;2023-04-24T09:45:22;0.60;;;0.45;;
72209;SDS011;60113;48.762;12.302;2023-04-24T09:47:52;0.50;;;0.50;;
72209;SDS011;60113;48.762;12.302;2023-04-24T09:50:21;0.93;;;0.60;;
72209;SDS011;60113;48.762;12.302;2023-04-24T09:52:52;0.90;;;0.40;;
72209;SDS011;60113;48.762;12.302;2023-04-24T09:55:22;0.20;;;0.20;;
72209;SDS011;60113;48.762;12.302;2023-04-24T10:00:18;0.32;;;0.30;;
72209;SDS011;60113;48.762;12.302;2023-04-24T10:02:55;0.40;;;0.25;;
72209;SDS011;60113;48.762;12.302;2023-04-24T10:05:25;1.00;;;0.40;;
72209;SDS011;60113;48.762;12.302;2023-04-24T10:10:23;0.40;;;0.38;;
72209;SDS011;60113;48.762;12.302;2023-04-24T10:12:49;0.20;;;0.20;;
72209;SDS011;60113;48.762;12.302;2023-04-24T10:15:16;1.10;;;0.30;;
72209;SDS011;60113;48.762;12.302;2023-04-24T10:17:46;0.32;;;0.30;;
72209;SDS011;60113;48.762;12.302;2023-04-24T10:20:17;0.73;;;0.30;;
72209;SDS011;60113;48.762;12.302;2023-04-24T10:22:45;0.70;;;0.50;;
72209;SDS011;60113;48.762;12.302;2023-04-24T10:25:16;0.32;;;0.30;;
72209;SDS011;60113;48.762;12.302;2023-04-24T10:27:45;0.50;;;0.40;;
72209;SDS011;60113;48.762;12.302;2023-04-24T10:30:12;0.88;;;0.50;;
72209;SDS011;60113;48.762;12.302;2023-04-24T10:32:38;0.60;;;0.50;;
72209;SDS011;60113;48.762;12.302;2023-04-24T10:35:03;0.32;;;0.32;;
72209;SDS011;60113;48.762;12.302;2023-04-24T10:37:34;0.50;;;0.40;;
72209;SDS011;60113;48.762;12.302;2023-04-24T10:40:25;0.50;;;0.40;;
72209;SDS011;60113;48.762;12.302;2023-04-24T10:42:58;0.40;;;0.40;;
72209;SDS011;60113;48.762;12.302;2023-04-24T10:45:24;0.50;;;0.40;;
72209;SDS011;60113;48.762;12.302;2023-04-24T10:50:44;0.65;;;0.50;;
72209;SDS011;60113;48.762;12.302;2023-04-24T10:53:17;1.40;;;0.80;;
72209;SDS011;60113;48.762;12.302;2023-04-24T10:55:44;2.70;;;0.90;;
72209;SDS011;60113;48.762;12.302;2023-04-24T10:58:14;1.17;;;0.98;;
72209;SDS011;60113;48.762;12.302;2023-04-24T11:00:42;1.38;;;0.70;;
72209;SDS011;60113;48.762;12.302;2023-04-24T11:05:56;1.42;;;0.88;;
72209;SDS011;60113;48.762;12.302;2023-04-24T11:08:44;1.90;;;0.50;;
72209;SDS011;60113;48.762;12.302;2023-04-24T11:11:12;1.05;;;0.70;;
72209;SDS011;60113;48.762;12.302;2023-04-24T11:16:20;3.20;;;2.17;;
72209;SDS011;60113;48.762;12.302;2023-04-24T11:18:49;3.30;;;2.10;;
72209;SDS011;60113;48.762;12.302;2023-04-24T11:21:18;11.85;;;6.15;;
72209;SDS011;60113;48.762;12.302;2023-04-24T11:23:45;4.45;;;2.58;;
72209;SDS011;60113;48.762;12.302;2023-04-24T11:26:17;0.88;;;0.65;;
72209;SDS011;60113;48.762;12.302;2023-04-24T11:28:49;0.82;;;0.70;;
72209;SDS011;60113;48.762;12.302;2023-04-24T11:31:34;1.20;;;0.75;;
72209;SDS011;60113;48.762;12.302;2023-04-24T11:34:10;0.77;;;0.57;;
72209;SDS011;60113;48.762;12.302;2023-04-24T11:36:38;1.23;;;0.68;;
72209;SDS011;60113;48.762;12.302;2023-04-24T11:39:03;0.98;;;0.60;;
72209;SDS011;60113;48.762;12.302;2023-04-24T11:41:30;0.65;;;0.50;;
72209;SDS011;60113;48.762;12.302;2023-04-24T11:43:55;0.85;;;0.75;;
72209;SDS011;60113;48.762;12.302;2023-04-24T11:46:21;0.95;;;0.80;;
72209;SDS011;60113;48.762;12.302;2023-04-24T11:48:47;0.60;;;0.45;;
72209;SDS011;60113;48.762;12.302;2023-04-24T11:51:15;0.98;;;0.40;;
72209;SDS011;60113;48.762;12.302;2023-04-24T11:53:40;0.10;;;0.10;;
72209;SDS011;60113;48.762;12.302;2023-04-24T11:56:06;0.17;;;0.15;;
72209;SDS011;60113;48.762;12.302;2023-04-24T11:58:37;0.68;;;0.57;;
72209;SDS011;60113;48.762;12.302;2023-04-24T12:01:04;0.45;;;0.32;;
72209;SDS011;60113;48.762;12.302;2023-04-24T12:03:30;0.20;;;0.20;;
72209;SDS011;60113;48.762;12.302;2023-04-24T12:06:08;4.47;;;0.35;;
72209;SDS011;60113;48.762;12.302;2023-04-24T12:08:35;0.30;;;0.20;;
72209;SDS011;60113;48.762;12.302;2023-04-24T12:11:01;0.20;;;0.20;;
72209;SDS011;60113;48.762;12.302;2023-04-24T12:13:27;0.10;;;0.10;;
72209;SDS011;60113;48.762;12.302;2023-04-24T12:15:53;0.57;;;0.30;;
72209;SDS011;60113;48.762;12.302;2023-04-24T12:18:18;1.05;;;0.30;;
72209;SDS011;60113;48.762;12.302;2023-04-24T12:20:48;0.20;;;0.20;;
72209;SDS011;60113;48.762;12.302;2023-04-24T12:23:13;0.20;;;0.20;;
72209;SDS011;60113;48.762;12.302;2023-04-24T12:25:39;0.20;;;0.20;;
72209;SDS011;60113;48.762;12.302;2023-04-24T12:30:32;0.43;;;0.25;;
72209;SDS011;60113;48.762;12.302;2023-04-24T12:33:03;0.50;;;0.40;;
72209;SDS011;60113;48.762;12.302;2023-04-24T12:35:30;1.38;;;0.38;;
72209;SDS011;60113;48.762;12.302;2023-04-24T12:38:05;0.40;;;0.30;;
72209;SDS011;60113;48.762;12.302;2023-04-24T12:40:34;0.73;;;0.30;;
72209;SDS011;60113;48.762;12.302;2023-04-24T12:43:00;0.38;;;0.38;;
72209;SDS011;60113;48.762;12.302;2023-04-24T12:45:25;0.20;;;0.20;;
72209;SDS011;60113;48.762;12.302;2023-04-24T12:47:52;0.60;;;0.30;;
72209;SDS011;60113;48.762;12.302;2023-04-24T12:50:18;0.30;;;0.30;;
72209;SDS011;60113;48.762;12.302;2023-04-24T12:52:44;2.97;;;0.25;;
72209;SDS011;60113;48.762;12.302;2023-04-24T12:55:09;0.60;;;0.30;;
72209;SDS011;60113;48.762;12.302;2023-04-24T12:57:36;0.57;;;0.40;;
72209;SDS011;60113;48.762;12.302;2023-04-24T13:00:03;0.40;;;0.40;;
72209;SDS011;60113;48.762;12.302;2023-04-24T13:02:30;0.57;;;0.30;;
72209;SDS011;60113;48.762;12.302;2023-04-24T13:04:56;1.10;;;0.70;;
72209;SDS011;60113;48.762;12.302;2023-04-24T13:07:23;0.57;;;0.45;;
72209;SDS011;60113;48.762;12.302;2023-04-24T13:09:50;1.55;;;0.40;;
72209;SDS011;60113;48.762;12.302;2023-04-24T13:12:16;2.15;;;0.40;;
72209;SDS011;60113;48.762;12.302;2023-04-24T13:14:42;0.50;;;0.20;;
72209;SDS011;60113;48.762;12.302;2023-04-24T13:17:08;0.52;;;0.40;;
72209;SDS011;60113;48.762;12.302;2023-04-24T13:19:37;0.55;;;0.40;;
72209;SDS011;60113;48.762;12.302;2023-04-24T13:22:04;0.57;;;0.20;;
72209;SDS011;60113;48.762;12.302;2023-04-24T13:24:30;0.93;;;0.60;;
72209;SDS011;60113;48.762;12.302;2023-04-24T13:26:57;3.40;;;0.32;;
72209;SDS011;60113;48.762;12.302;2023-04-24T13:29:22;0.50;;;0.30;;
72209;SDS011;60113;48.762;12.302;2023-04-24T13:31:51;1.10;;;0.47;;
72209;SDS011;60113;48.762;12.302;2023-04-24T13:34:24;0.50;;;0.47;;
72209;SDS011;60113;48.762;12.302;2023-04-24T13:36:50;0.57;;;0.43;;
72209;SDS011;60113;48.762;12.302;2023-04-24T13:39:17;0.70;;;0.50;;
72209;SDS011;60113;48.762;12.302;2023-04-24T13:41:43;0.90;;;0.55;;
72209;SDS011;60113;48.762;12.302;2023-04-24T13:44:09;1.00;;;0.40;;
72209;SDS011;60113;48.762;12.302;2023-04-24T13:46:35;1.50;;;0.40;;
72209;SDS011;60113;48.762;12.302;2023-04-24T13:49:01;0.88;;;0.28;;
72209;SDS011;60113;48.762;12.302;2023-04-24T13:51:28;2.28;;;0.40;;
72209;SDS011;60113;48.762;12.302;2023-04-24T13:53:54;0.65;;;0.30;;
72209;SDS011;60113;48.762;12.302;2023-04-24T13:56:20;0.50;;;0.30;;
72209;SDS011;60113;48.762;12.302;2023-04-24T13:58:47;0.40;;;0.40;;
72209;SDS011;60113;48.762;12.302;2023-04-24T14:01:12;0.50;;;0.40;;
72209;SDS011;60113;48.762;12.302;2023-04-24T14:03:39;0.57;;;0.30;;
72209;SDS011;60113;48.762;12.302;2023-04-24T14:06:05;0.77;;;0.40;;
72209;SDS011;60113;48.762;12.302;2023-04-24T14:08:31;0.25;;;0.25;;
72209;SDS011;60113;48.762;12.302;2023-04-24T14:10:57;0.30;;;0.30;;
72209;SDS011;60113;48.762;12.302;2023-04-24T14:13:22;0.52;;;0.30;;
72209;SDS011;60113;48.762;12.302;2023-04-24T14:15:48;0.45;;;0.40;;
72209;SDS011;60113;48.762;12.302;2023-04-24T14:18:14;1.02;;;0.40;;
72209;SDS011;60113;48.762;12.302;2023-04-24T14:20:40;3.47;;;0.30;;
72209;SDS011;60113;48.762;12.302;2023-04-24T14:23:05;2.17;;;0.35;;
72209;SDS011;60113;48.762;12.302;2023-04-24T14:25:31;2.92;;;0.52;;
72209;SDS011;60113;48.762;12.302;2023-04-24T14:27:56;0.80;;;0.40;;
72209;SDS011;60113;48.762;12.302;2023-04-24T14:30:21;0.43;;;0.30;;
72209;SDS011;60113;48.762;12.302;2023-04-24T14:32:47;0.60;;;0.40;;
72209;SDS011;60113;48.762;12.302;2023-04-24T14:35:13;0.47;;;0.40;;
72209;SDS011;60113;48.762;12.302;2023-04-24T14:37:39;0.22;;;0.20;;
72209;SDS011;60113;48.762;12.302;2023-04-24T14:40:06;0.85;;;0.30;;
72209;SDS011;60113;48.762;12.302;2023-04-24T14:42:34;0.22;;;0.20;;
72209;SDS011;60113;48.762;12.302;2023-04-24T14:45:00;0.32;;;0.30;;
72209;SDS011;60113;48.762;12.302;2023-04-24T14:47:26;0.10;;;0.10;;